San Antonio North's Hourly Summary for Saturday, July 7, 2018
Hour Temp
(f)
RH
(%)
Solar Rad.
(MJ/m2)
Rainfall
(in)
Wind
(mph)
7/7/2018 12:00 AM 78 73 0 0 0.03
7/7/2018 1:00 AM 77 76 0 0 0.01
7/7/2018 2:00 AM 76 80 0 0.02 0.76
7/7/2018 3:00 AM 74 92 0 0.01 0.01
7/7/2018 4:00 AM 73 93 0 0 0.07
7/7/2018 5:00 AM 73 94 0 0 0
7/7/2018 6:00 AM 72 94 0 0 0
7/7/2018 7:00 AM 73 94 0.01 0 0.01
7/7/2018 8:00 AM 73 92 0.12 0 0.46
7/7/2018 9:00 AM 75 84 0.7 0 1.87
7/7/2018 10:00 AM 79 72 1.62 0 2.7
7/7/2018 11:00 AM 82 64 2.19 0 3.72
7/7/2018 12:00 PM 85 54 2.28 0 4.07
7/7/2018 1:00 PM 87 47 2.49 0 4.29
7/7/2018 2:00 PM 85 47 1.45 0 5.93
7/7/2018 3:00 PM 86 50 3.4 0 4.61
7/7/2018 4:00 PM 89 45 2.83 0 3.76
7/7/2018 5:00 PM 89 43 1.67 0 3.26
7/7/2018 6:00 PM 78 58 0.3 0.54 2.88
7/7/2018 7:00 PM 74 92 0.14 0.01 1.07
7/7/2018 8:00 PM 75 92 0.09 0 0.32
7/7/2018 9:00 PM 75 91 0.02 0 0.19
7/7/2018 10:00 PM 74 90 0 0 0.2
7/7/2018 11:00 PM 73 93 0 0 0.02
Data Summary 78 75 19.31 0.58 1.68